createdAt,value
2023-02-11T00:00:18.024Z,-3.26
2023-02-11T00:01:25.165Z,-3.25
2023-02-11T00:02:29.627Z,-3.24
2023-02-11T00:03:31.232Z,-3.29
2023-02-11T00:04:35.709Z,-3.25
2023-02-11T00:05:37.353Z,-3.26
2023-02-11T00:06:39.115Z,-3.29
2023-02-11T00:07:40.671Z,-3.30
2023-02-11T00:08:42.316Z,-3.30
2023-02-11T00:09:44.006Z,-3.30
2023-02-11T00:10:46.510Z,-3.26
2023-02-11T00:11:47.966Z,-3.24
2023-02-11T00:12:49.385Z,-3.26
2023-02-11T00:13:51.212Z,-3.28
2023-02-11T00:14:52.751Z,-3.28
2023-02-11T00:15:54.938Z,-3.30
2023-02-11T00:16:59.809Z,-3.31
2023-02-11T00:18:01.534Z,-3.30
2023-02-11T00:19:06.837Z,-3.30
2023-02-11T00:20:09.133Z,-3.31
2023-02-11T00:21:13.684Z,-3.27
2023-02-11T00:22:15.280Z,-3.23
2023-02-11T00:23:16.906Z,-3.19
2023-02-11T00:24:18.585Z,-3.15
2023-02-11T00:25:20.530Z,-3.14
2023-02-11T00:26:24.514Z,-3.19
2023-02-11T00:27:26.309Z,-3.21
2023-02-11T00:28:28.331Z,-3.17
2023-02-11T00:29:29.942Z,-3.17
2023-02-11T00:30:31.680Z,-3.12
2023-02-11T00:31:33.938Z,-3.13
2023-02-11T00:32:35.570Z,-3.15
2023-02-11T00:33:37.073Z,-3.14
2023-02-11T00:34:38.543Z,-3.13
2023-02-11T00:35:39.993Z,-3.13
2023-02-11T00:36:41.848Z,-3.13
2023-02-11T00:37:43.300Z,-3.14
2023-02-11T00:38:45.854Z,-3.18
2023-02-11T00:39:47.527Z,-3.16
2023-02-11T00:40:48.970Z,-3.15
2023-02-11T00:41:50.724Z,-3.17
2023-02-11T00:42:52.176Z,-3.20
2023-02-11T00:43:53.801Z,-3.21
2023-02-11T00:44:55.252Z,-3.19
2023-02-11T00:45:56.865Z,-3.24
2023-02-11T00:46:58.326Z,-3.21
2023-02-11T00:47:59.838Z,-3.28
2023-02-11T00:49:03.781Z,-3.29
2023-02-11T00:50:06.321Z,-3.32
2023-02-11T00:51:08.581Z,-3.33
2023-02-11T00:52:10.076Z,-3.36
2023-02-11T00:53:11.804Z,-3.38
2023-02-11T00:54:13.386Z,-3.40
2023-02-11T00:55:15.981Z,-3.37
2023-02-11T00:56:17.588Z,-3.32
2023-02-11T00:57:19.037Z,-3.35
2023-02-11T00:58:21.302Z,-3.44
2023-02-11T00:59:22.998Z,-3.41
2023-02-11T01:00:24.512Z,-3.39
2023-02-11T01:01:26.412Z,-3.37
2023-02-11T01:02:27.995Z,-3.35
2023-02-11T01:03:30.135Z,-3.31
2023-02-11T01:04:31.611Z,-3.43
2023-02-11T01:05:33.215Z,-3.48
2023-02-11T01:06:34.712Z,-3.51
2023-02-11T01:07:36.339Z,-3.53
2023-02-11T01:08:38.151Z,-3.54
2023-02-11T01:09:42.152Z,-3.58
2023-02-11T01:10:44.052Z,-3.50
2023-02-11T01:11:45.552Z,-3.48
2023-02-11T01:12:47.147Z,-3.48
2023-02-11T01:13:49.747Z,-3.52
2023-02-11T01:14:51.297Z,-3.52
2023-02-11T01:15:53.382Z,-3.51
2023-02-11T01:16:55.094Z,-3.47
2023-02-11T01:17:56.608Z,-3.42
2023-02-11T01:18:58.916Z,-3.49
2023-02-11T01:20:04.093Z,-3.56
2023-02-11T01:21:05.706Z,-3.55
2023-02-11T01:22:10.144Z,-3.53
2023-02-11T01:23:16.135Z,-3.44
2023-02-11T01:24:17.925Z,-3.40
2023-02-11T01:25:22.891Z,-3.36
2023-02-11T01:26:24.490Z,-3.33
2023-02-11T01:27:26.108Z,-3.34
2023-02-11T01:28:29.691Z,-3.39
2023-02-11T01:29:31.303Z,-3.40
2023-02-11T01:30:33.003Z,-3.38
2023-02-11T01:31:35.014Z,-3.42
2023-02-11T01:32:36.852Z,-3.45
2023-02-11T01:33:38.535Z,-3.45
2023-02-11T01:34:40.314Z,-3.42
2023-02-11T01:35:42.417Z,-3.43
2023-02-11T01:36:43.962Z,-3.49
2023-02-11T01:37:45.662Z,-3.57
2023-02-11T01:38:47.360Z,-3.53
2023-02-11T01:39:48.849Z,-3.50
2023-02-11T01:41:02.887Z,-3.48
2023-02-11T01:42:04.472Z,-3.48
2023-02-11T01:43:06.656Z,-3.46
2023-02-11T01:44:24.352Z,-3.40
2023-02-11T01:45:58.255Z,-3.42
2023-02-11T01:47:00.658Z,-3.48
2023-02-11T01:48:02.525Z,-3.51
2023-02-11T01:49:18.930Z,-3.50
2023-02-11T01:50:20.895Z,-3.50
2023-02-11T01:51:32.045Z,-3.52
2023-02-11T01:52:39.289Z,-3.47
2023-02-11T01:54:00.589Z,-3.42
2023-02-11T01:55:31.124Z,-3.42
2023-02-11T01:56:54.058Z,-3.36
2023-02-11T01:57:59.238Z,-3.35
2023-02-11T01:59:11.524Z,-3.39
2023-02-11T02:00:15.829Z,-3.31
2023-02-11T02:01:23.312Z,-3.20
2023-02-11T02:02:37.350Z,-3.25
2023-02-11T02:03:43.903Z,-3.26
2023-02-11T02:05:02.553Z,-3.18
2023-02-11T02:06:12.460Z,-3.24
2023-02-11T02:07:25.256Z,-3.23
2023-02-11T02:08:32.990Z,-3.20
2023-02-11T02:09:40.148Z,-3.15
2023-02-11T02:10:45.794Z,-3.16
2023-02-11T02:11:47.542Z,-3.22
2023-02-11T02:12:49.284Z,-3.22
2023-02-11T02:13:50.765Z,-3.24
2023-02-11T02:15:20.102Z,-3.30
2023-02-11T02:16:23.390Z,-3.27
2023-02-11T02:17:41.416Z,-3.17
2023-02-11T02:19:01.771Z,-3.17
2023-02-11T02:20:25.879Z,-3.13
2023-02-11T02:22:01.549Z,-3.15
2023-02-11T02:23:02.940Z,-3.08
2023-02-11T02:24:22.194Z,-3.09
2023-02-11T02:26:09.075Z,-3.10
2023-02-11T02:27:25.943Z,-3.05
2023-02-11T02:29:05.807Z,-3.14
2023-02-11T02:30:33.138Z,-3.17
2023-02-11T02:31:52.749Z,-3.23
2023-02-11T02:32:57.236Z,-3.26
2023-02-11T02:34:19.829Z,-3.23
2023-02-11T02:35:48.634Z,-3.23
2023-02-11T02:37:11.141Z,-3.25
2023-02-11T02:38:34.258Z,-3.24
2023-02-11T02:39:37.358Z,-3.24
2023-02-11T02:40:48.815Z,-3.21
2023-02-11T02:41:52.857Z,-3.18
2023-02-11T02:42:55.245Z,-3.18
2023-02-11T02:43:57.253Z,-3.21
2023-02-11T02:44:58.898Z,-3.24
2023-02-11T02:46:33.613Z,-3.20
2023-02-11T02:47:35.678Z,-3.23
2023-02-11T02:48:37.188Z,-3.25
2023-02-11T02:49:38.630Z,-3.24
2023-02-11T02:50:40.204Z,-3.19
2023-02-11T02:52:07.033Z,-3.23
2023-02-11T02:53:49.439Z,-3.30
2023-02-11T02:55:15.666Z,-3.28
2023-02-11T02:56:33.173Z,-3.25
2023-02-11T02:58:02.175Z,-3.23
2023-02-11T02:59:19.365Z,-3.28
2023-02-11T03:00:30.555Z,-3.30
2023-02-11T03:01:37.688Z,-3.26
2023-02-11T03:02:54.947Z,-3.22
2023-02-11T03:04:05.924Z,-3.19
2023-02-11T03:05:19.629Z,-3.16
2023-02-11T03:06:47.206Z,-3.13
2023-02-11T03:07:59.208Z,-3.14
2023-02-11T03:09:13.053Z,-3.11
2023-02-11T03:10:18.563Z,-3.06
2023-02-11T03:11:21.897Z,-3.07
2023-02-11T03:12:25.050Z,-3.08
2023-02-11T03:13:28.310Z,-3.06
2023-02-11T03:14:32.435Z,-3.00
2023-02-11T03:15:38.832Z,-3.02
2023-02-11T03:16:41.332Z,-3.07
2023-02-11T03:17:46.133Z,-3.03
2023-02-11T03:18:53.197Z,-3.01
2023-02-11T03:19:56.769Z,-2.99
2023-02-11T03:20:59.854Z,-3.02
2023-02-11T03:22:05.295Z,-3.04
2023-02-11T03:23:30.797Z,-2.99
2023-02-11T03:24:37.524Z,-3.00
2023-02-11T03:25:53.238Z,-2.98
2023-02-11T03:26:57.894Z,-2.95
2023-02-11T03:28:06.829Z,-2.93
2023-02-11T03:29:16.976Z,-2.89
2023-02-11T03:30:28.505Z,-2.88
2023-02-11T03:31:44.218Z,-2.83
2023-02-11T03:32:51.938Z,-2.75
2023-02-11T03:34:02.461Z,-2.70
2023-02-11T03:35:32.894Z,-2.69
2023-02-11T03:36:50.758Z,-2.71
2023-02-11T03:37:57.686Z,-2.72
2023-02-11T03:39:01.834Z,-2.71
2023-02-11T03:40:08.236Z,-2.66
2023-02-11T03:41:11.272Z,-2.64
2023-02-11T03:42:15.354Z,-2.58
2023-02-11T03:43:21.280Z,-2.47
2023-02-11T03:44:25.342Z,-2.44
2023-02-11T03:45:28.658Z,-2.41
2023-02-11T03:46:38.849Z,-2.35
2023-02-11T03:47:46.060Z,-2.30
2023-02-11T03:48:51.897Z,-2.27
2023-02-11T03:49:55.925Z,-2.26
2023-02-11T03:50:59.621Z,-2.23
2023-02-11T03:52:03.013Z,-2.20
2023-02-11T03:53:06.693Z,-2.18
2023-02-11T03:54:14.286Z,-2.19
2023-02-11T03:55:18.630Z,-2.17
2023-02-11T03:56:23.386Z,-2.17
2023-02-11T03:57:24.869Z,-2.19
2023-02-11T03:58:26.911Z,-2.19
2023-02-11T03:59:28.453Z,-2.20
2023-02-11T04:00:32.044Z,-2.19
2023-02-11T04:01:34.202Z,-2.20
2023-02-11T04:02:37.589Z,-2.19
2023-02-11T04:03:39.109Z,-2.22
2023-02-11T04:04:40.747Z,-2.23
2023-02-11T04:05:42.413Z,-2.22
2023-02-11T04:06:44.158Z,-2.26
2023-02-11T04:07:45.582Z,-2.20
2023-02-11T04:08:47.098Z,-2.19
2023-02-11T04:09:49.288Z,-2.25
2023-02-11T04:10:51.229Z,-2.24
2023-02-11T04:11:52.819Z,-2.21
2023-02-11T04:12:54.423Z,-2.24
2023-02-11T04:13:56.419Z,-2.29
2023-02-11T04:14:57.941Z,-2.33
2023-02-11T04:15:59.514Z,-2.33
2023-02-11T04:17:01.040Z,-2.34
2023-02-11T04:18:03.612Z,-2.35
2023-02-11T04:19:05.147Z,-2.34
2023-02-11T04:20:07.148Z,-2.31
2023-02-11T04:21:09.313Z,-2.29
2023-02-11T04:22:10.869Z,-2.27
2023-02-11T04:23:12.414Z,-2.26
2023-02-11T04:24:14.454Z,-2.23
2023-02-11T04:25:16.014Z,-2.21
2023-02-11T04:26:17.544Z,-2.13
2023-02-11T04:27:19.113Z,-2.10
2023-02-11T04:28:20.637Z,-2.10
2023-02-11T04:29:22.978Z,-2.11
2023-02-11T04:30:24.627Z,-2.10
2023-02-11T04:31:26.287Z,-2.11
2023-02-11T04:32:28.119Z,-2.11
2023-02-11T04:33:30.254Z,-2.08
2023-02-11T04:34:31.801Z,-2.06
2023-02-11T04:35:33.985Z,-2.01
2023-02-11T04:36:35.542Z,-1.99
2023-02-11T04:37:37.041Z,-1.97
2023-02-11T04:38:38.557Z,-1.94
2023-02-11T04:39:40.562Z,-1.92
2023-02-11T04:40:42.033Z,-1.89
2023-02-11T04:41:43.560Z,-1.89
2023-02-11T04:42:45.434Z,-1.89
2023-02-11T04:43:46.907Z,-1.91
2023-02-11T04:44:48.377Z,-1.95
2023-02-11T04:45:50.249Z,-1.95
2023-02-11T04:46:52.431Z,-1.97
2023-02-11T04:47:54.168Z,-1.95
2023-02-11T04:48:56.543Z,-1.90
2023-02-11T04:49:58.478Z,-1.90
2023-02-11T04:51:00.003Z,-1.90
2023-02-11T04:52:01.553Z,-1.89
2023-02-11T04:53:03.112Z,-1.88
2023-02-11T04:54:04.778Z,-1.88
2023-02-11T04:55:06.828Z,-1.89
2023-02-11T04:56:08.435Z,-1.89
2023-02-11T04:57:09.927Z,-1.87
2023-02-11T04:58:11.458Z,-1.88
2023-02-11T04:59:13.577Z,-1.86
2023-02-11T05:00:16.132Z,-1.87
2023-02-11T05:01:17.779Z,-1.86
2023-02-11T05:02:19.334Z,-1.82
2023-02-11T05:03:20.896Z,-1.78
2023-02-11T05:04:22.561Z,-1.77
2023-02-11T05:05:24.769Z,-1.79
2023-02-11T05:06:26.529Z,-1.87
2023-02-11T05:07:28.416Z,-1.90
2023-02-11T05:08:30.343Z,-1.91
2023-02-11T05:09:31.815Z,-1.93
2023-02-11T05:10:34.576Z,-1.93
2023-02-11T05:11:36.990Z,-1.93
2023-02-11T05:12:38.581Z,-1.93
2023-02-11T05:13:40.072Z,-1.95
2023-02-11T05:14:41.637Z,-2.00
2023-02-11T05:15:43.512Z,-1.96
2023-02-11T05:16:44.991Z,-1.99
2023-02-11T05:17:47.252Z,-1.96
2023-02-11T05:18:52.426Z,-1.92
2023-02-11T05:19:54.592Z,-1.91
2023-02-11T05:20:56.617Z,-1.91
2023-02-11T05:22:02.873Z,-1.91
2023-02-11T05:23:04.903Z,-1.91
2023-02-11T05:24:06.900Z,-1.90
2023-02-11T05:25:08.907Z,-1.88
2023-02-11T05:26:11.353Z,-1.86
2023-02-11T05:27:13.148Z,-1.89
2023-02-11T05:28:14.954Z,-1.91
2023-02-11T05:29:16.430Z,-1.87
2023-02-11T05:30:18.050Z,-1.81
2023-02-11T05:31:19.713Z,-1.76
2023-02-11T05:32:21.524Z,-1.72
2023-02-11T05:33:25.110Z,-1.69
2023-02-11T05:34:27.005Z,-1.61
2023-02-11T05:35:28.583Z,-1.60
2023-02-11T05:36:33.331Z,-1.60
2023-02-11T05:37:35.477Z,-1.63
2023-02-11T05:38:38.074Z,-1.62
2023-02-11T05:39:42.246Z,-1.61
2023-02-11T05:40:44.027Z,-1.62
2023-02-11T05:41:45.776Z,-1.64
2023-02-11T05:42:47.215Z,-1.66
2023-02-11T05:43:51.528Z,-1.63
2023-02-11T05:44:53.501Z,-1.56
2023-02-11T05:45:55.854Z,-1.56
2023-02-11T05:46:57.418Z,-1.57
2023-02-11T05:47:58.971Z,-1.60
2023-02-11T05:49:00.484Z,-1.59
2023-02-11T05:50:02.083Z,-1.60
2023-02-11T05:51:03.720Z,-1.58
2023-02-11T05:52:05.631Z,-1.53
2023-02-11T05:53:07.269Z,-1.49
2023-02-11T05:54:08.891Z,-1.43
2023-02-11T05:55:10.600Z,-1.42
2023-02-11T05:56:12.674Z,-1.42
2023-02-11T05:57:14.345Z,-1.43
2023-02-11T05:58:16.311Z,-1.46
2023-02-11T05:59:18.377Z,-1.42
2023-02-11T06:00:20.106Z,-1.43
2023-02-11T06:01:21.645Z,-1.44
2023-02-11T06:02:23.169Z,-1.45
2023-02-11T06:03:24.702Z,-1.41
2023-02-11T06:04:26.475Z,-1.42
2023-02-11T06:05:27.971Z,-1.45
2023-02-11T06:06:29.626Z,-1.43
2023-02-11T06:07:31.220Z,-1.43
2023-02-11T06:08:33.162Z,-1.44
2023-02-11T06:09:34.652Z,-1.45
2023-02-11T06:10:36.247Z,-1.47
2023-02-11T06:11:38.120Z,-1.47
2023-02-11T06:12:39.702Z,-1.51
2023-02-11T06:13:41.187Z,-1.52
2023-02-11T06:14:45.727Z,-1.56
2023-02-11T06:15:58.794Z,-1.58
2023-02-11T06:17:01.997Z,-1.61
2023-02-11T06:18:03.503Z,-1.65
2023-02-11T06:19:04.875Z,-1.67
2023-02-11T06:20:08.689Z,-1.67
2023-02-11T06:21:11.482Z,-1.67
2023-02-11T06:22:13.292Z,-1.67
2023-02-11T06:23:15.237Z,-1.66
2023-02-11T06:24:24.686Z,-1.66
2023-02-11T06:25:38.381Z,-1.64
2023-02-11T06:26:39.865Z,-1.68
2023-02-11T06:27:41.789Z,-1.69
2023-02-11T06:28:43.529Z,-1.70
2023-02-11T06:29:46.053Z,-1.71
2023-02-11T06:30:47.543Z,-1.74
2023-02-11T06:31:49.180Z,-1.75
2023-02-11T06:32:51.718Z,-1.72
2023-02-11T06:33:55.008Z,-1.70
2023-02-11T06:34:57.059Z,-1.68
2023-02-11T06:35:58.507Z,-1.66
2023-02-11T06:36:59.972Z,-1.66
2023-02-11T06:38:04.219Z,-1.64
2023-02-11T06:39:05.772Z,-1.65
2023-02-11T06:40:07.806Z,-1.63
2023-02-11T06:41:14.142Z,-1.62
2023-02-11T06:42:15.701Z,-1.64
2023-02-11T06:43:17.426Z,-1.59
2023-02-11T06:44:18.866Z,-1.54
2023-02-11T06:45:20.621Z,-1.53
2023-02-11T06:46:22.313Z,-1.55
2023-02-11T06:47:23.792Z,-1.58
2023-02-11T06:48:25.374Z,-1.57
2023-02-11T06:49:27.164Z,-1.60
2023-02-11T06:50:28.703Z,-1.66
2023-02-11T06:51:30.218Z,-1.71
2023-02-11T06:52:32.685Z,-1.75
2023-02-11T06:53:43.676Z,-1.80
2023-02-11T06:54:45.113Z,-1.83
2023-02-11T06:55:47.016Z,-1.85
2023-02-11T06:56:48.459Z,-1.85
2023-02-11T06:57:49.943Z,-1.89
2023-02-11T06:58:55.616Z,-1.90
2023-02-11T06:59:57.126Z,-1.88
2023-02-11T07:00:59.233Z,-1.88
2023-02-11T07:02:00.891Z,-1.90
2023-02-11T07:03:02.535Z,-1.90
2023-02-11T07:04:03.993Z,-1.88
2023-02-11T07:05:07.082Z,-1.86
2023-02-11T07:06:12.763Z,-1.74
2023-02-11T07:07:14.422Z,-1.75
2023-02-11T07:08:15.862Z,-1.82
2023-02-11T07:09:17.302Z,-1.77
2023-02-11T07:10:19.089Z,-1.82
2023-02-11T07:11:24.500Z,-1.85
2023-02-11T07:12:26.037Z,-1.82
2023-02-11T07:13:27.973Z,-1.85
2023-02-11T07:14:29.434Z,-1.89
2023-02-11T07:15:31.192Z,-1.92
2023-02-11T07:16:33.013Z,-1.91
2023-02-11T07:17:35.694Z,-1.86
2023-02-11T07:18:37.426Z,-1.85
2023-02-11T07:19:38.934Z,-1.83
2023-02-11T07:20:40.401Z,-1.81
2023-02-11T07:21:42.026Z,-1.77
2023-02-11T07:22:43.511Z,-1.73
2023-02-11T07:23:45.614Z,-1.68
2023-02-11T07:24:47.106Z,-1.63
2023-02-11T07:25:48.812Z,-1.57
2023-02-11T07:26:50.494Z,-1.58
2023-02-11T07:27:51.913Z,-1.56
2023-02-11T07:28:53.422Z,-1.52
2023-02-11T07:29:54.894Z,-1.50
2023-02-11T07:30:56.396Z,-1.48
2023-02-11T07:31:57.925Z,-1.49
2023-02-11T07:32:59.434Z,-1.48
2023-02-11T07:34:01.934Z,-1.42
2023-02-11T07:35:04.279Z,-1.36
2023-02-11T07:36:07.667Z,-1.29
2023-02-11T07:37:09.164Z,-1.18
2023-02-11T07:38:10.593Z,-1.09
2023-02-11T07:39:12.504Z,-1.02
2023-02-11T07:40:13.958Z,-0.97
2023-02-11T07:41:19.102Z,-0.93
2023-02-11T07:42:20.523Z,-0.94
2023-02-11T07:43:22.280Z,-0.94
2023-02-11T07:44:23.811Z,-0.87
2023-02-11T07:45:25.428Z,-0.84
2023-02-11T07:46:28.058Z,-0.79
2023-02-11T07:47:29.508Z,-0.73
2023-02-11T07:48:31.148Z,-0.73
2023-02-11T07:49:32.740Z,-0.69
2023-02-11T07:50:34.209Z,-0.65
2023-02-11T07:51:35.647Z,-0.61
2023-02-11T07:52:37.174Z,-0.58
2023-02-11T07:53:38.909Z,-0.53
2023-02-11T07:54:40.477Z,-0.49
2023-02-11T07:55:43.376Z,-0.47
2023-02-11T07:56:45.058Z,-0.47
2023-02-11T07:57:46.641Z,-0.46
2023-02-11T07:58:49.005Z,-0.45
2023-02-11T07:59:50.528Z,-0.43
2023-02-11T08:00:51.972Z,-0.38
2023-02-11T08:01:53.538Z,-0.35
2023-02-11T08:02:57.219Z,-0.32
2023-02-11T08:04:00.564Z,-0.30
2023-02-11T08:05:02.005Z,-0.27
2023-02-11T08:06:12.041Z,-0.24
2023-02-11T08:07:17.860Z,-0.18
2023-02-11T08:08:19.437Z,-0.16
2023-02-11T08:09:20.904Z,-0.15
2023-02-11T08:10:22.561Z,-0.18
2023-02-11T08:11:26.918Z,-0.16
2023-02-11T08:12:28.406Z,-0.14
2023-02-11T08:13:29.842Z,-0.10
2023-02-11T08:14:32.808Z,-0.10
2023-02-11T08:15:34.476Z,-0.09
2023-02-11T08:16:37.176Z,-0.09
2023-02-11T08:17:38.699Z,-0.10
2023-02-11T08:18:40.126Z,-0.10
2023-02-11T08:19:41.607Z,-0.09
2023-02-11T08:20:43.119Z,-0.06
2023-02-11T08:21:44.754Z,-0.01
2023-02-11T08:22:46.216Z,0.04
2023-02-11T08:23:48.094Z,0.10
2023-02-11T08:24:52.081Z,0.16
2023-02-11T08:25:53.989Z,0.17
2023-02-11T08:26:55.476Z,0.19
2023-02-11T08:27:56.986Z,0.22
2023-02-11T08:28:59.503Z,0.24
2023-02-11T08:30:01.875Z,0.25
2023-02-11T08:31:12.267Z,0.27
2023-02-11T08:32:13.865Z,0.31
2023-02-11T08:33:15.336Z,0.33
2023-02-11T08:34:19.140Z,0.33
2023-02-11T08:35:20.621Z,0.33
2023-02-11T08:36:24.521Z,0.37
2023-02-11T08:37:26.063Z,0.46
2023-02-11T08:38:27.610Z,0.46
2023-02-11T08:39:29.097Z,0.48
2023-02-11T08:40:30.698Z,0.45
2023-02-11T08:41:33.874Z,0.50
2023-02-11T08:42:35.337Z,0.54
2023-02-11T08:43:37.550Z,0.58
2023-02-11T08:44:39.158Z,0.61
2023-02-11T08:45:40.640Z,0.61
2023-02-11T08:46:42.120Z,0.71
2023-02-11T08:47:43.655Z,0.74
2023-02-11T08:48:46.295Z,0.77
2023-02-11T08:49:47.918Z,0.79
2023-02-11T08:50:49.531Z,0.80
2023-02-11T08:51:51.325Z,0.85
2023-02-11T08:52:52.831Z,0.87
2023-02-11T08:53:55.084Z,0.87
2023-02-11T08:54:56.653Z,0.92
2023-02-11T08:55:58.260Z,0.93
2023-02-11T08:57:01.906Z,1.09
2023-02-11T08:58:03.431Z,1.41
2023-02-11T08:59:05.619Z,1.50
2023-02-11T09:00:07.869Z,1.45
2023-02-11T09:01:15.922Z,1.37
2023-02-11T09:02:17.879Z,1.41
2023-02-11T09:03:19.283Z,1.49
2023-02-11T09:04:20.702Z,1.56
2023-02-11T09:05:22.878Z,1.54
2023-02-11T09:06:25.789Z,1.49
2023-02-11T09:07:28.915Z,1.55
2023-02-11T09:08:30.402Z,1.67
2023-02-11T09:09:32.038Z,1.83
2023-02-11T09:10:34.535Z,1.80
2023-02-11T09:11:36.434Z,2.02
2023-02-11T09:12:37.902Z,2.20
2023-02-11T09:13:41.980Z,2.38
2023-02-11T09:14:43.516Z,2.31
2023-02-11T09:15:46.799Z,2.33
2023-02-11T09:16:49.104Z,2.21
2023-02-11T09:17:51.026Z,2.38
2023-02-11T09:18:53.287Z,2.35
2023-02-11T09:19:54.773Z,2.49
2023-02-11T09:21:08.200Z,2.60
2023-02-11T09:22:09.689Z,2.65
2023-02-11T09:23:11.266Z,2.72
2023-02-11T09:24:12.745Z,2.64
2023-02-11T09:25:14.216Z,2.64
2023-02-11T09:26:20.359Z,2.54
2023-02-11T09:27:21.938Z,2.48
2023-02-11T09:28:23.466Z,2.40
2023-02-11T09:29:25.005Z,2.39
2023-02-11T09:30:26.726Z,2.41
2023-02-11T09:31:31.934Z,2.46
2023-02-11T09:32:34.432Z,2.52
2023-02-11T09:33:37.105Z,2.68
2023-02-11T09:34:38.663Z,2.67
2023-02-11T09:35:40.525Z,2.64
2023-02-11T09:36:42.358Z,2.63
2023-02-11T09:37:43.788Z,2.66
2023-02-11T09:38:46.574Z,2.76
2023-02-11T09:39:48.473Z,2.77
2023-02-11T09:40:50.363Z,2.75
2023-02-11T09:42:37.103Z,2.69
2023-02-11T09:43:46.315Z,2.80
2023-02-11T09:44:47.682Z,2.75
2023-02-11T09:45:50.797Z,2.68
2023-02-11T09:47:02.848Z,2.63
2023-02-11T09:48:15.750Z,2.64
2023-02-11T09:49:22.838Z,2.63
2023-02-11T09:50:38.965Z,2.58
2023-02-11T09:51:52.368Z,2.63
2023-02-11T09:52:56.586Z,2.64
2023-02-11T09:54:05.687Z,2.65
2023-02-11T09:55:26.662Z,3.02
2023-02-11T09:56:28.428Z,3.05
2023-02-11T09:57:37.141Z,3.07
2023-02-11T09:58:41.073Z,3.01
2023-02-11T09:59:43.250Z,2.96
2023-02-11T10:01:09.662Z,2.91
2023-02-11T10:02:24.578Z,2.89
2023-02-11T10:03:44.249Z,2.88
2023-02-11T10:04:48.503Z,2.89
2023-02-11T10:06:14.399Z,2.84
2023-02-11T10:07:25.630Z,2.93
2023-02-11T10:08:45.777Z,2.96
2023-02-11T10:10:23.062Z,2.93
2023-02-11T10:11:35.111Z,3.06
2023-02-11T10:12:58.272Z,3.28
2023-02-11T10:14:41.403Z,3.30
2023-02-11T10:15:56.184Z,3.22
2023-02-11T10:17:06.765Z,3.26
2023-02-11T10:18:29.808Z,3.25
2023-02-11T10:19:47.349Z,3.30
2023-02-11T10:20:54.336Z,3.36
2023-02-11T10:22:13.032Z,3.38
2023-02-11T10:23:24.754Z,3.42
2023-02-11T10:24:29.099Z,3.42
2023-02-11T10:25:39.541Z,3.50
2023-02-11T10:26:41.850Z,3.71
2023-02-11T10:27:53.987Z,3.71
2023-02-11T10:29:01.792Z,3.78
2023-02-11T10:30:16.009Z,3.79
2023-02-11T10:31:35.756Z,3.82
2023-02-11T10:32:49.329Z,3.89
2023-02-11T10:34:06.429Z,3.91
2023-02-11T10:35:15.582Z,3.94
2023-02-11T10:36:18.429Z,3.94
2023-02-11T10:37:20.054Z,4.06
2023-02-11T10:38:21.791Z,4.16
2023-02-11T10:39:26.784Z,4.17
2023-02-11T10:40:31.314Z,4.12
2023-02-11T10:41:36.922Z,4.16
2023-02-11T10:42:39.883Z,4.11
2023-02-11T10:43:42.800Z,4.17
2023-02-11T10:44:58.816Z,4.18
2023-02-11T10:46:04.777Z,4.19
2023-02-11T10:47:33.248Z,4.27
2023-02-11T10:48:44.206Z,4.18
2023-02-11T10:49:47.337Z,4.19
2023-02-11T10:50:48.997Z,4.17
2023-02-11T10:52:02.960Z,4.09
2023-02-11T10:53:23.820Z,3.98
2023-02-11T10:54:28.438Z,3.93
2023-02-11T10:55:30.073Z,3.93
2023-02-11T10:56:37.193Z,3.96
2023-02-11T10:57:50.206Z,3.95
2023-02-11T10:59:10.123Z,4.05
2023-02-11T11:00:30.439Z,4.07
2023-02-11T11:01:50.052Z,4.12
2023-02-11T11:03:00.277Z,4.17
2023-02-11T11:04:01.890Z,4.20
2023-02-11T11:05:16.255Z,4.22
2023-02-11T11:06:30.310Z,4.14
2023-02-11T11:07:33.850Z,4.11
2023-02-11T11:08:50.565Z,4.19
2023-02-11T11:09:55.467Z,4.20
2023-02-11T11:11:04.875Z,4.30
2023-02-11T11:12:06.378Z,4.30
2023-02-11T11:13:27.610Z,4.40
2023-02-11T11:14:29.658Z,4.33
2023-02-11T11:15:32.664Z,4.28
2023-02-11T11:16:35.209Z,4.38
2023-02-11T11:17:38.049Z,4.40
2023-02-11T11:18:45.161Z,4.39
2023-02-11T11:19:46.645Z,4.47
2023-02-11T11:21:05.884Z,4.51
2023-02-11T11:22:07.463Z,4.52
2023-02-11T11:23:22.447Z,4.46
2023-02-11T11:24:33.601Z,4.55
2023-02-11T11:25:39.579Z,4.53
2023-02-11T11:26:47.916Z,4.60
2023-02-11T11:27:51.595Z,4.50
2023-02-11T11:28:59.843Z,4.44
2023-02-11T11:30:03.456Z,4.37
2023-02-11T11:31:12.407Z,4.32
2023-02-11T11:32:41.996Z,4.28
2023-02-11T11:33:44.671Z,4.23
2023-02-11T11:34:52.588Z,4.21
2023-02-11T11:36:06.821Z,4.30
2023-02-11T11:37:22.453Z,4.35
2023-02-11T11:38:24.575Z,4.31
2023-02-11T11:39:29.828Z,4.26
2023-02-11T11:40:33.466Z,4.26
2023-02-11T11:41:35.165Z,4.20
2023-02-11T11:42:38.812Z,4.22
2023-02-11T11:43:40.614Z,4.15
2023-02-11T11:44:42.033Z,4.08
2023-02-11T11:45:58.608Z,4.08
2023-02-11T11:47:12.097Z,4.15
2023-02-11T11:48:23.161Z,4.16
2023-02-11T11:49:36.269Z,4.10
2023-02-11T11:50:52.992Z,4.06
2023-02-11T11:52:09.354Z,4.14
2023-02-11T11:53:27.161Z,4.08
2023-02-11T11:54:31.403Z,4.10
2023-02-11T11:55:45.307Z,4.10
2023-02-11T11:57:01.568Z,4.17
2023-02-11T11:58:04.918Z,4.18
2023-02-11T11:59:16.849Z,4.20
2023-02-11T12:00:21.944Z,4.21
2023-02-11T12:01:54.080Z,4.23
2023-02-11T12:03:21.126Z,4.31
2023-02-11T12:04:31.824Z,4.36
2023-02-11T12:06:04.527Z,4.41
2023-02-11T12:07:17.938Z,4.47
2023-02-11T12:08:30.888Z,4.52
2023-02-11T12:09:59.173Z,4.50
2023-02-11T12:11:12.406Z,4.43
2023-02-11T12:12:46.560Z,4.35
2023-02-11T12:14:02.222Z,4.25
2023-02-11T12:15:11.891Z,4.25
2023-02-11T12:16:37.164Z,4.36
2023-02-11T12:18:23.684Z,4.35
2023-02-11T12:20:00.453Z,4.29
2023-02-11T12:21:10.968Z,4.33
2023-02-11T12:22:30.983Z,4.42
2023-02-11T12:23:54.496Z,4.33
2023-02-11T12:25:25.476Z,4.35
2023-02-11T12:26:36.308Z,4.34
2023-02-11T12:27:44.442Z,4.36
2023-02-11T12:29:37.481Z,4.32
2023-02-11T12:30:50.491Z,4.33
2023-02-11T12:32:17.261Z,4.34
2023-02-11T12:33:49.766Z,4.38
2023-02-11T12:35:07.277Z,4.35
2023-02-11T12:36:23.400Z,4.37
2023-02-11T12:37:32.871Z,4.39
2023-02-11T12:38:46.999Z,4.41
2023-02-11T12:40:03.213Z,4.49
2023-02-11T12:41:53.469Z,4.44
2023-02-11T12:43:16.712Z,4.50
2023-02-11T12:44:40.264Z,4.55
2023-02-11T12:46:16.034Z,4.74
2023-02-11T12:47:35.626Z,4.78
2023-02-11T12:48:40.931Z,4.77
2023-02-11T12:50:02.850Z,4.80
2023-02-11T12:51:41.755Z,4.77
2023-02-11T12:52:48.031Z,4.77
2023-02-11T12:54:14.593Z,4.81
2023-02-11T12:55:23.448Z,4.72
2023-02-11T12:56:38.880Z,4.62
2023-02-11T12:57:42.310Z,4.63
2023-02-11T12:58:45.795Z,4.77
2023-02-11T13:00:05.049Z,4.88
2023-02-11T13:01:19.201Z,4.76
2023-02-11T13:02:44.673Z,4.66
2023-02-11T13:03:53.521Z,4.59
2023-02-11T13:05:01.587Z,4.54
2023-02-11T13:06:11.712Z,4.56
2023-02-11T13:07:19.864Z,4.66
2023-02-11T13:08:31.467Z,4.74
2023-02-11T13:09:39.431Z,4.79
2023-02-11T13:10:46.457Z,4.74
2023-02-11T13:11:57.995Z,4.68
2023-02-11T13:13:17.443Z,4.68
2023-02-11T13:14:25.080Z,4.61
2023-02-11T13:15:26.835Z,4.58
2023-02-11T13:16:38.046Z,4.60
2023-02-11T13:18:01.241Z,4.70
2023-02-11T13:19:14.081Z,4.71
2023-02-11T13:20:41.886Z,4.76
2023-02-11T13:22:00.518Z,4.72
2023-02-11T13:23:21.879Z,4.76
2023-02-11T13:24:38.509Z,4.73
2023-02-11T13:25:57.463Z,4.70
2023-02-11T13:27:25.352Z,4.72
2023-02-11T13:28:48.808Z,4.72
2023-02-11T13:29:50.370Z,4.78
2023-02-11T13:31:02.083Z,4.77
2023-02-11T13:32:48.178Z,4.71
2023-02-11T13:33:51.117Z,4.79
2023-02-11T13:34:53.093Z,4.83
2023-02-11T13:35:57.883Z,4.80
2023-02-11T13:37:07.592Z,4.73
2023-02-11T13:38:22.338Z,4.68
2023-02-11T13:39:58.797Z,4.84
2023-02-11T13:42:10.532Z,4.84
2023-02-11T13:43:38.662Z,4.89
2023-02-11T13:44:43.245Z,4.81
2023-02-11T13:46:10.385Z,4.83
2023-02-11T13:47:34.533Z,4.96
2023-02-11T13:48:38.979Z,4.93
2023-02-11T13:50:22.654Z,4.97
2023-02-11T13:51:39.689Z,4.88
2023-02-11T13:52:42.909Z,4.83
2023-02-11T13:53:56.018Z,4.78
2023-02-11T13:55:06.672Z,4.86
2023-02-11T13:56:33.330Z,4.93
2023-02-11T13:57:38.090Z,4.97
2023-02-11T13:59:02.029Z,4.99
2023-02-11T14:00:25.435Z,4.93
2023-02-11T14:02:12.890Z,4.83
2023-02-11T14:03:33.578Z,4.85
2023-02-11T14:04:53.413Z,4.82
2023-02-11T14:06:28.595Z,4.78
2023-02-11T14:07:55.532Z,4.72
2023-02-11T14:09:17.311Z,4.63
2023-02-11T14:10:43.518Z,4.58
2023-02-11T14:11:51.340Z,4.65
2023-02-11T14:13:18.608Z,4.66
2023-02-11T14:14:23.779Z,4.61
2023-02-11T14:19:46.358Z,4.65
2023-02-11T14:22:03.108Z,4.78
2023-02-11T14:24:36.756Z,4.72
2023-02-11T14:29:16.789Z,4.61
2023-02-11T14:30:41.438Z,4.56
2023-02-11T14:32:08.124Z,4.73
2023-02-11T14:33:39.023Z,4.73
2023-02-11T14:34:51.438Z,4.73
2023-02-11T14:38:48.852Z,4.74
2023-02-11T14:40:29.789Z,4.75
2023-02-11T14:41:40.135Z,4.70
2023-02-11T14:43:37.420Z,4.67
2023-02-11T14:50:09.878Z,4.70
2023-02-11T14:51:39.642Z,4.71
2023-02-11T14:52:43.120Z,4.71
2023-02-11T14:53:49.425Z,4.70
2023-02-11T14:55:25.298Z,4.68
2023-02-11T14:56:49.823Z,4.63
2023-02-11T15:02:08.727Z,4.63
2023-02-11T15:04:20.918Z,4.60
2023-02-11T15:05:27.022Z,4.51